Pagrindinis puslapis
METAR-TAF:

METAR-TAF

Oro uostai :

Estešundas-Frösön, Švedija

platuma: 63-11N, ilguma: 014-30E, Aukštis: 376 m

Dabartinis oras

Ataskaita buvo paskelbta 30 minutes, ne 10:20 UTC
Vėjas 8 kt iš Pietų/Pietvakarių
Temperatūra 7°C
Drėgmė 70%
Slėgis 996 hPa
Matomumas 10 km arba daugiau
Išsisklaidę debesys ne aukštis 7200 ft

METAR: ESNZ 291020Z 21008KT 9999 SCT072 07/02 Q0996

Laikas: 11:50 (10:50 UTC)

Prognozė

Ataskaita buvo paskelbta 5 valandos ir 20 minutes, ne 05:30 UTC
Prognozė galioja nuo 29 metu 06 UTC su 29 metu 08 UTC
Vėjas 10 kt iš Pietų
Matomumas 10 km arba daugiau
Išsisklaidę debesys ne aukštis 4000 ft

TAF: ESNZ 290530Z 2906/2908 19010KT 9999 SCT040

Orai ataskaitas ir orų prognozės (METAR, TAF).

turimą stotys yra geltonos ir raudonos taškus žemėlapyje.

Perkelti pele per norėdami pamatyti stoties vardą.

Tada spustelėkite, norėdami matyti oro stebėjimo ir prognozės.

Norėdami pakeisti žemėlapį: spustelėkite ant žalios mygtukų su juodo kryžiaus žemyn,; žalią mygtuką su brūkšneliu, jei norite nutolinti; arba žalių rodyklių gretimoms žemėlapius.


METAR-TAF: